Pagrindinis puslapis
METAR-TAF:

METAR-TAF

Oro uostai :

Gvatemala, Gvatemala

platuma: 14-35N, ilguma: 090-31W, Aukštis: 1489 m

Dabartinis oras

Ataskaita buvo paskelbta 53 minutes, ne 09:00 UTC
Vėjas 14 kt iš Šiaurės
Temperatūra 16°C
Drėgmė 88%
Slėgis 1025 hPa
Matomumas 10 km arba daugiau
Su prošvaistėmis ne aukštis 1200 ft

METAR: MGGT 090900Z 36014KT 9999 BKN012 16/14 Q1025 A3027

Laikas: 03:53 (09:53 UTC)

Prognozė

Prognozė galioja nuo 09 metu 06 UTC su 10 metu 06 UTC
Vėjas 12 kt iš Šiaurės
Matomumas 10 km arba daugiau
Su prošvaistėmis ne aukštis 1200 ft
Tapsmas
nuo 09 metu 14 UTC su 09 metu 16 UTC
Mažai debesys ne aukštis 1800 ft
Laikinai
nuo 09 metu 19 UTC su 09 metu 24 UTC
Vėjas 10 kt iš Šiaurės Rytų
Išsisklaidę debesys ne aukštis 2000 ft
Tapsmas
nuo 10 metu 01 UTC su 10 metu 03 UTC
Vėjas 8 kt iš Šiaurės
Mažai debesys ne aukštis 1600 ft

TAF: MGGT 0906/1006 36012KT 9999 BKN012 TX26/0920Z TN13/0912Z BECMG 0914/0916 FEW018 TEMPO 0919/0924 05010KT SCT020 BECMG 1001/1003 36008KT FEW016

Orai ataskaitas ir orų prognozės (METAR, TAF).

turimą stotys yra geltonos ir raudonos taškus žemėlapyje.

Perkelti pele per norėdami pamatyti stoties vardą.

Tada spustelėkite, norėdami matyti oro stebėjimo ir prognozės.

Norėdami pakeisti žemėlapį: spustelėkite ant žalios mygtukų su juodo kryžiaus žemyn,; žalią mygtuką su brūkšneliu, jei norite nutolinti; arba žalių rodyklių gretimoms žemėlapius.


METAR-TAF: